Time;durP1;ratioP1;P1;durP2;ratioP2;P2;SDS_P1;SDS_P2;PMS_P1;PMS_P2;Temp;Humidity;BMP_temperature;BMP_pressure;BME280_temperature;BME280_humidity;BME280_pressure;Samples;Min_cycle;Max_cycle;Signal;HPM_P1;HPM_P2
2022/12/21 00:01:55;;;;;;;12.57;8.70;;;;;;;1.65;100.00;92927.53;2063825;28;20073;-76
2022/12/21 00:03:42;;;;;;;15.13;7.65;;;;;;;1.76;100.00;92931.00;2067057;28;20057;-78
2022/12/21 00:05:36;;;;;;;14.05;8.10;;;;;;;1.64;100.00;92928.66;2079855;28;20049;-78
2022/12/21 00:07:24;;;;;;;12.40;7.45;;;;;;;1.68;100.00;92927.56;2050621;28;20051;-76
2022/12/21 00:09:19;;;;;;;10.75;8.02;;;;;;;1.65;100.00;92930.91;2040889;28;20657;-76
2022/12/21 00:13:53;;;;;;;12.95;8.32;;;;;;;1.62;100.00;92925.59;2074026;28;20403;-76
2022/12/21 00:15:55;;;;;;;12.73;9.15;;;;;;;1.69;100.00;92923.03;2049670;28;20086;-76
2022/12/21 00:18:05;;;;;;;13.38;8.25;;;;;;;1.81;100.00;92924.66;2056720;28;20077;-79
2022/12/21 00:23:06;;;;;;;11.35;7.68;;;;;;;1.78;100.00;92920.84;2062379;28;20044;-77
2022/12/21 00:33:09;;;;;;;14.90;8.65;;;;;;;2.05;100.00;92910.88;2047500;28;20065;-80
2022/12/21 00:35:13;;;;;;;15.85;8.63;;;;;;;1.77;100.00;92916.72;2030456;29;20048;-79
2022/12/21 00:36:58;;;;;;;12.00;9.00;;;;;;;1.76;100.00;92915.22;1996095;29;20057;-77
2022/12/21 00:40:34;;;;;;;15.52;9.07;;;;;;;1.71;100.00;92931.31;1989706;29;20487;-76
2022/12/21 00:42:15;;;;;;;16.38;8.27;;;;;;;1.70;100.00;92925.31;1991613;29;20077;-76
2022/12/21 00:47:40;;;;;;;13.00;8.40;;;;;;;1.73;100.00;92935.13;1997574;29;19920;-76
2022/12/21 00:53:31;;;;;;;17.90;9.45;;;;;;;1.90;100.00;92925.84;2001284;29;20045;-76
2022/12/21 00:55:27;;;;;;;18.98;10.77;;;;;;;1.75;100.00;92918.94;2001250;29;20528;-76
2022/12/21 01:04:13;;;;;;;14.48;8.98;;;;;;;1.83;100.00;92909.97;2001754;29;20117;-77
2022/12/21 01:07:29;;;;;;;16.25;9.40;;;;;;;1.71;100.00;92912.88;2036743;29;20036;-76
2022/12/21 01:09:30;;;;;;;19.13;10.57;;;;;;;1.76;100.00;92910.69;2053092;28;20058;-76
2022/12/21 01:11:04;;;;;;;13.60;9.13;;;;;;;1.75;100.00;92908.41;2072839;28;20072;-76
2022/12/21 01:12:57;;;;;;;;;;;;;;;;;;;;;
2022/12/21 01:18:59;;;;;;;16.38;8.80;;;;;;;1.63;100.00;92906.81;2068767;28;20045;-76
2022/12/21 01:20:43;;;;;;;13.75;8.10;;;;;;;1.68;100.00;92908.38;2060655;28;20038;-76
2022/12/21 01:22:55;;;;;;;12.18;7.30;;;;;;;1.80;100.00;92910.72;2040161;28;20165;-76
2022/12/21 01:26:00;;;;;;;9.32;5.78;;;;;;;2.31;100.00;92902.00;2045672;28;19986;-76
2022/12/21 01:29:46;;;;;;;14.77;8.93;;;;;;;2.10;100.00;92915.81;2083131;28;20044;-75
2022/12/21 01:31:19;;;;;;;13.93;9.38;;;;;;;1.94;100.00;92908.19;2062918;28;20045;-76
2022/12/21 01:33:39;;;;;;;15.23;8.50;;;;;;;1.91;100.00;92908.16;2019926;29;20040;-75
2022/12/21 01:37:06;;;;;;;12.73;8.70;;;;;;;1.92;100.00;92912.31;2043778;28;20942;-74
2022/12/21 01:38:43;;;;;;;11.65;8.25;;;;;;;1.92;100.00;92907.78;2047344;28;20035;-75
2022/12/21 01:40:44;;;;;;;;;;;;;;;;;;;;;
2022/12/21 01:41:51;;;;;;;11.50;8.18;;;;;;;2.08;100.00;92904.13;2059395;28;20283;-74
2022/12/21 01:45:45;;;;;;;8.20;4.45;;;;;;;2.89;100.00;92903.78;2043308;29;20043;-74
2022/12/21 01:49:18;;;;;;;12.45;5.05;;;;;;;3.11;100.00;92895.94;2063104;28;20046;-74
2022/12/21 01:52:50;;;;;;;5.35;3.55;;;;;;;3.74;100.00;92890.00;2087809;28;20450;-74
2022/12/21 01:54:58;;;;;;;4.85;3.33;;;;;;;4.06;100.00;92899.06;2062184;28;20493;-73
2022/12/21 01:56:18;;;;;;;5.80;2.40;;;;;;;4.33;100.00;92899.38;2066344;28;20034;-74
2022/12/21 01:57:53;;;;;;;2.28;2.00;;;;;;;4.61;100.00;92898.56;2052599;28;20050;-76
2022/12/21 01:59:45;;;;;;;4.05;2.45;;;;;;;4.78;100.00;92892.44;2073892;28;20116;-74
2022/12/21 02:01:13;;;;;;;2.35;2.03;;;;;;;4.96;100.00;92895.03;2067612;28;20045;-74
2022/12/21 02:02:53;;;;;;;3.47;2.15;;;;;;;5.00;100.00;92888.59;2063018;28;20133;-73
2022/12/21 02:04:14;;;;;;;5.22;2.17;;;;;;;4.95;100.00;92891.63;2055548;28;20097;-74
2022/12/21 02:05:29;;;;;;;5.45;2.22;;;;;;;4.98;100.00;92892.75;2062229;28;20040;-73
2022/12/21 02:06:40;;;;;;;5.97;1.92;;;;;;;5.28;100.00;92885.03;2056364;28;20042;-73
2022/12/21 02:07:43;;;;;;;3.47;1.98;;;;;;;5.01;100.00;92900.69;2056260;28;20121;-73
2022/12/21 02:08:58;;;;;;;4.15;1.80;;;;;;;5.05;100.00;92887.44;2071595;28;20037;-74
2022/12/21 02:10:05;;;;;;;3.72;2.00;;;;;;;5.24;100.00;92884.31;2070673;28;20061;-74
2022/12/21 02:11:11;;;;;;;3.53;2.25;;;;;;;5.61;100.00;92882.94;2066479;28;20034;-73
2022/12/21 02:12:15;;;;;;;4.10;1.83;;;;;;;5.35;100.00;92883.47;2058636;28;20089;-74
2022/12/21 02:13:19;;;;;;;2.15;1.65;;;;;;;5.28;100.00;92884.28;2057573;28;20062;-73
2022/12/21 02:14:22;;;;;;;4.07;1.90;;;;;;;5.31;100.00;92875.53;2064958;28;20022;-73
2022/12/21 02:15:51;;;;;;;3.70;1.92;;;;;;;5.22;100.00;92868.06;2072480;28;20033;-74
2022/12/21 02:17:19;;;;;;;2.85;1.80;;;;;;;5.44;100.00;92876.59;2069345;28;20510;-74
2022/12/21 02:18:32;;;;;;;3.78;1.73;;;;;;;5.56;100.00;92865.53;2062308;28;20044;-75
2022/12/21 02:20:07;;;;;;;5.07;1.80;;;;;;;5.67;100.00;92870.03;2066987;28;20057;-75
2022/12/21 02:21:23;;;;;;;3.55;1.85;;;;;;;5.52;100.00;92872.75;2065543;28;20053;-75
2022/12/21 02:23:01;;;;;;;2.85;1.98;;;;;;;5.40;100.00;92873.25;2059949;28;20095;-74
2022/12/21 02:24:22;;;;;;;3.65;1.50;;;;;;;5.28;100.00;92873.69;2071510;28;20799;-74
2022/12/21 02:25:57;;;;;;;3.92;1.52;;;;;;;5.21;100.00;92871.06;2060829;28;20030;-73
2022/12/21 02:27:30;;;;;;;2.38;1.17;;;;;;;5.34;100.00;92872.13;2061504;28;20072;-74
2022/12/21 02:28:50;;;;;;;4.20;1.50;;;;;;;5.29;100.00;92870.66;2060221;28;20061;-74
2022/12/21 02:30:17;;;;;;;2.50;1.55;;;;;;;5.28;100.00;92871.03;2052829;28;20034;-74
2022/12/21 02:31:45;;;;;;;3.50;1.50;;;;;;;5.35;100.00;92876.28;2062741;28;20073;-73
2022/12/21 02:33:05;;;;;;;1.77;1.45;;;;;;;5.28;100.00;92879.75;2067283;28;20464;-73
2022/12/21 02:34:18;;;;;;;6.40;1.73;;;;;;;5.34;100.00;92872.13;2063464;28;20060;-74
2022/12/21 02:35:30;;;;;;;5.35;1.40;;;;;;;5.41;100.00;92868.69;2056915;28;20031;-74
2022/12/21 02:36:43;;;;;;;4.30;1.45;;;;;;;5.41;100.00;92866.78;2059908;28;20054;-74
2022/12/21 02:38:08;;;;;;;3.95;1.48;;;;;;;5.56;100.00;92865.53;2057141;28;20051;-74
2022/12/21 02:39:38;;;;;;;1.65;1.38;;;;;;;5.51;100.00;92879.22;2053554;28;20587;-74
2022/12/21 02:41:03;;;;;;;1.40;1.30;;;;;;;5.46;100.00;92863.72;2066083;28;20041;-74
2022/12/21 02:44:13;;;;;;;1.92;1.10;;;;;;;5.82;100.00;92872.19;2077479;28;20033;-74
2022/12/21 02:45:54;;;;;;;1.80;1.30;;;;;;;5.55;100.00;92868.59;2082403;28;20029;-73
2022/12/21 02:47:22;;;;;;;2.33;1.58;;;;;;;5.54;100.00;92869.75;2071423;28;20034;-74
2022/12/21 02:48:51;;;;;;;3.60;1.20;;;;;;;5.61;100.00;92877.63;2079789;28;20039;-74
2022/12/21 02:50:15;;;;;;;2.47;1.10;;;;;;;5.59;100.00;92865.94;2071734;28;20132;-74
2022/12/21 02:51:34;;;;;;;1.17;1.08;;;;;;;5.61;100.00;92874.22;2061861;28;20056;-74
2022/12/21 02:52:46;;;;;;;3.63;1.27;;;;;;;5.59;100.00;92868.56;2066597;28;20089;-72
2022/12/21 02:53:52;;;;;;;3.58;1.63;;;;;;;5.65;100.00;92870.41;2066178;28;20134;-74
2022/12/21 02:55:02;;;;;;;4.10;1.30;;;;;;;5.58;100.00;92864.44;2073303;28;20029;-74
2022/12/21 02:56:23;;;;;;;6.28;1.95;;;;;;;5.53;100.00;92874.28;2073516;28;20069;-74
2022/12/21 02:57:35;;;;;;;;;;;;;;;5.68;100.00;92866.22;2066985;28;20045;-75
2022/12/21 02:58:47;;;;;;;1.50;1.08;;;;;;;5.74;100.00;92865.41;2058076;28;19914;-73
2022/12/21 02:59:54;;;;;;;1.25;1.00;;;;;;;5.64;100.00;92868.91;2063544;28;20580;-73
2022/12/21 03:01:13;;;;;;;3.38;1.10;;;;;;;5.58;100.00;92864.44;2068367;28;20110;-72
2022/12/21 03:03:47;;;;;;;4.63;1.15;;;;;;;5.58;100.00;92864.44;2060063;28;20057;-74
2022/12/21 03:04:37;;;;;;;1.50;1.00;;;;;;;5.43;100.00;92858.44;2072516;28;20081;-74
2022/12/21 03:05:56;;;;;;;1.67;1.20;;;;;;;5.43;100.00;92858.44;2065044;28;20037;-74
2022/12/21 03:07:31;;;;;;;2.55;1.10;;;;;;;5.95;100.00;92864.53;2068691;28;20061;-76
2022/12/21 03:08:55;;;;;;;2.05;1.10;;;;;;;5.85;100.00;92862.69;2067805;28;20410;-73
2022/12/21 03:10:19;;;;;;;1.50;1.00;;;;;;;5.68;100.00;92859.03;2061993;28;20101;-74
2022/12/21 03:13:35;;;;;;;2.78;1.00;;;;;;;5.32;100.00;92869.13;2043105;28;20047;-76
2022/12/21 03:15:11;;;;;;;1.95;0.85;;;;;;;5.28;100.00;92857.78;2067170;28;20121;-76
2022/12/21 03:16:23;;;;;;;1.60;1.00;;;;;;;5.52;100.00;92866.72;2067551;28;20128;-76
2022/12/21 03:17:42;;;;;;;2.72;1.10;;;;;;;5.46;100.00;92858.44;2058153;28;20037;-76
2022/12/21 03:19:03;;;;;;;4.53;1.20;;;;;;;5.43;100.00;92853.91;2070912;28;20038;-75
2022/12/21 03:21:02;;;;;;;;;;;;;;;;;;;;;
2022/12/21 03:22:19;;;;;;;1.58;0.98;;;;;;;5.39;100.00;92852.41;2085420;28;20094;-73
2022/12/21 03:24:00;;;;;;;2.38;0.90;;;;;;;5.38;100.00;92854.31;2075263;28;20037;-74
2022/12/21 03:25:08;;;;;;;1.23;0.80;;;;;;;5.41;100.00;92852.78;2056192;28;20873;-75
2022/12/21 03:26:23;;;;;;;4.13;1.25;;;;;;;5.41;100.00;92853.53;2066739;28;20065;-76
2022/12/21 03:27:40;;;;;;;1.65;0.88;;;;;;;5.69;100.00;92859.78;2064999;28;20080;-73
2022/12/21 03:28:50;;;;;;;1.75;1.00;;;;;;;5.73;100.00;92861.25;2059300;28;20030;-74
2022/12/21 03:30:11;;;;;;;4.45;1.23;;;;;;;5.64;100.00;92854.91;2057555;28;20097;-73
2022/12/21 03:31:23;;;;;;;2.03;0.73;;;;;;;5.76;100.00;92860.50;2067381;28;20088;-74
2022/12/21 03:33:02;;;;;;;1.60;0.88;;;;;;;5.55;100.00;92850.03;2063785;28;20042;-72
2022/12/21 03:34:17;;;;;;;0.82;0.80;;;;;;;5.43;100.00;92861.09;2058998;28;20034;-73
2022/12/21 03:35:29;;;;;;;1.15;0.70;;;;;;;5.95;100.00;92859.22;2058687;28;20065;-73
2022/12/21 03:36:49;;;;;;;0.88;0.88;;;;;;;6.62;100.00;92854.38;2051957;28;20473;-75
2022/12/21 03:37:55;;;;;;;1.73;0.80;;;;;;;6.30;100.00;92846.78;2054036;28;20035;-73
2022/12/21 03:39:12;;;;;;;1.25;0.80;;;;;;;6.37;100.00;92851.28;2053551;28;20607;-74
2022/12/21 03:40:20;;;;;;;1.77;0.90;;;;;;;6.21;100.00;92857.84;2060318;28;20066;-73
2022/12/21 03:41:36;;;;;;;3.10;1.10;;;;;;;6.03;100.00;92852.72;2061650;28;20038;-74
2022/12/21 03:42:49;;;;;;;1.02;0.70;;;;;;;6.05;100.00;92857.63;2065101;28;20038;-73
2022/12/21 03:43:52;;;;;;;;;;;;;;;6.28;100.00;92854.38;2067753;28;20452;-73
2022/12/21 03:45:04;;;;;;;1.08;0.77;;;;;;;6.35;100.00;92850.91;2064697;28;19909;-73
2022/12/21 03:46:22;;;;;;;2.55;0.80;;;;;;;6.27;100.00;92855.50;2066020;28;20042;-73
2022/12/21 03:47:59;;;;;;;2.45;0.93;;;;;;;6.03;100.00;92857.25;2072598;28;20026;-75
2022/12/21 03:49:28;;;;;;;1.23;0.70;;;;;;;6.09;100.00;92850.38;2063018;28;20039;-74
2022/12/21 03:50:52;;;;;;;2.92;0.80;;;;;;;5.95;100.00;92851.25;2065262;28;20034;-75
2022/12/21 03:52:14;;;;;;;2.30;0.82;;;;;;;5.99;100.00;92845.94;2060033;28;20096;-74
2022/12/21 03:53:46;;;;;;;1.77;0.82;;;;;;;5.94;100.00;92852.41;2065404;28;20041;-74
2022/12/21 03:55:27;;;;;;;1.38;0.80;;;;;;;5.80;100.00;92853.25;2070529;28;20046;-74
2022/12/21 03:56:44;;;;;;;2.30;1.10;;;;;;;6.22;100.00;92840.03;2070693;28;20050;-74
2022/12/21 03:58:05;;;;;;;0.75;0.75;;;;;;;6.05;100.00;92845.09;2074620;28;20176;-74
2022/12/21 03:59:22;;;;;;;1.27;0.60;;;;;;;5.85;100.00;92840.72;2073690;28;20077;-75
2022/12/21 04:00:31;;;;;;;1.77;0.70;;;;;;;5.59;100.00;92839.41;2065263;28;20058;-77
2022/12/21 04:02:04;;;;;;;1.85;0.85;;;;;;;5.53;100.00;92839.06;2076333;28;20104;-77
2022/12/21 04:03:30;;;;;;;10.95;1.02;;;;;;;5.29;100.00;92836.19;2080735;28;20040;-76
2022/12/21 04:05:00;;;;;;;1.15;0.95;;;;;;;5.36;100.00;92837.31;2075952;28;20129;-75
2022/12/21 04:06:23;;;;;;;4.80;0.80;;;;;;;5.50;100.00;92832.66;2074859;28;20041;-76
2022/12/21 04:07:38;;;;;;;1.38;0.70;;;;;;;5.66;100.00;92840.09;2075581;28;20033;-74
2022/12/21 04:08:56;;;;;;;1.42;1.00;;;;;;;5.50;100.00;92837.22;2078784;28;20143;-75
2022/12/21 04:10:11;;;;;;;1.83;1.08;;;;;;;5.34;100.00;92829.72;2073800;28;20099;-75
2022/12/21 04:12:51;;;;;;;1.35;0.80;;;;;;;5.71;100.00;92834.41;2084530;28;20064;-74
2022/12/21 04:14:07;;;;;;;1.63;0.98;;;;;;;5.56;100.00;92831.09;2082949;28;20040;-74
2022/12/21 04:16:02;;;;;;;3.58;0.95;;;;;;;6.09;100.00;92833.72;2072860;28;20133;-74
2022/12/21 04:16:51;;;;;;;0.90;0.80;;;;;;;6.17;100.00;92837.81;2080511;28;20108;-74
2022/12/21 04:18:10;;;;;;;1.35;0.90;;;;;;;5.95;100.00;92839.91;2076019;28;20041;-74
2022/12/21 04:21:19;;;;;;;1.67;0.70;;;;;;;5.86;100.00;92842.22;2095404;28;20123;-74
2022/12/21 04:28:27;;;;;;;1.15;0.73;;;;;;;5.89;100.00;92833.50;2083756;28;20053;-77
2022/12/21 04:29:35;;;;;;;0.93;0.82;;;;;;;5.78;100.00;92838.88;2073855;28;20209;-74
2022/12/21 04:30:51;;;;;;;2.38;0.80;;;;;;;5.66;100.00;92842.75;2071052;28;20046;-73
2022/12/21 04:31:53;;;;;;;2.13;1.13;;;;;;;5.56;100.00;92838.28;2073827;28;20182;-75
2022/12/21 04:33:00;;;;;;;5.22;0.90;;;;;;;5.67;100.00;92832.91;2073802;28;20030;-75
2022/12/21 04:34:04;;;;;;;2.72;0.70;;;;;;;5.79;100.00;92835.06;2073011;28;20045;-74
2022/12/21 04:35:16;;;;;;;2.65;0.75;;;;;;;5.68;100.00;92845.03;2073050;28;20037;-74
2022/12/21 04:37:46;;;;;;;1.27;0.70;;;;;;;5.78;100.00;92836.97;2079294;28;20047;-77
2022/12/21 04:39:09;;;;;;;3.70;1.02;;;;;;;5.67;100.00;92836.31;2089255;28;20551;-75
2022/12/21 04:40:13;;;;;;;2.00;0.70;;;;;;;5.91;100.00;92839.16;2080115;28;20083;-75
2022/12/21 04:41:31;;;;;;;1.38;0.95;;;;;;;5.89;100.00;92836.91;2066106;28;20036;-74
2022/12/21 04:42:38;;;;;;;3.10;0.80;;;;;;;5.84;100.00;92831.25;2065718;28;20034;-77
2022/12/21 04:43:42;;;;;;;1.92;0.90;;;;;;;5.59;100.00;92837.50;2069547;28;20065;-74
2022/12/21 04:44:54;;;;;;;1.27;0.68;;;;;;;5.64;100.00;92844.28;2070939;28;20034;-73
2022/12/21 04:46:07;;;;;;;2.60;0.80;;;;;;;5.54;100.00;92830.72;2064325;28;20035;-76
2022/12/21 04:47:22;;;;;;;1.27;0.80;;;;;;;5.72;100.00;92837.78;2066151;28;20219;-76
2022/12/21 04:48:31;;;;;;;0.77;0.77;;;;;;;5.86;100.00;92837.66;2058461;28;20042;-76
2022/12/21 04:49:38;;;;;;;1.92;0.90;;;;;;;5.67;100.00;92841.63;2057908;28;20031;-74
2022/12/21 04:50:50;;;;;;;0.82;0.82;;;;;;;5.70;100.00;92846.13;2075794;28;20037;-74
2022/12/21 04:52:01;;;;;;;1.58;0.68;;;;;;;6.12;100.00;92838.25;2078317;28;20033;-74
2022/12/21 04:53:20;;;;;;;0.77;0.70;;;;;;;6.20;100.00;92835.13;2073642;28;20037;-74
2022/12/21 04:54:30;;;;;;;2.58;0.60;;;;;;;6.07;100.00;92839.41;2074680;28;20033;-73
2022/12/21 04:55:36;;;;;;;2.05;0.80;;;;;;;5.88;100.00;92830.06;2063993;28;20405;-73
2022/12/21 04:56:54;;;;;;;1.05;0.70;;;;;;;5.92;100.00;92841.44;2073562;28;20164;-75
2022/12/21 04:57:59;;;;;;;1.75;0.63;;;;;;;5.64;100.00;92842.41;2074209;28;20076;-72
2022/12/21 04:59:07;;;;;;;2.40;0.93;;;;;;;5.70;100.00;92838.16;2071949;28;20420;-73
2022/12/21 05:00:17;;;;;;;2.67;0.80;;;;;;;5.94;100.00;92833.09;2074217;28;20125;-74
2022/12/21 05:01:22;;;;;;;2.05;0.95;;;;;;;6.23;100.00;92850.25;2072701;28;20037;-74
2022/12/21 05:02:33;;;;;;;2.33;0.73;;;;;;;6.03;100.00;92842.09;2072500;28;20033;-74
2022/12/21 05:04:05;;;;;;;1.98;0.70;;;;;;;5.86;100.00;92847.53;2066921;28;20044;-73
2022/12/21 05:05:20;;;;;;;2.88;0.70;;;;;;;5.86;100.00;92842.22;2079347;28;20037;-74
2022/12/21 05:06:33;;;;;;;2.47;1.00;;;;;;;5.80;100.00;92837.34;2063283;28;20081;-75
2022/12/21 05:07:38;;;;;;;3.60;0.90;;;;;;;5.75;100.00;92842.28;2067830;28;20074;-75
2022/12/21 05:08:42;;;;;;;0.85;0.75;;;;;;;5.79;100.00;92841.16;2072611;28;20029;-73
2022/12/21 05:09:46;;;;;;;4.60;0.90;;;;;;;6.16;100.00;92845.00;2072950;28;20032;-75
2022/12/21 05:10:50;;;;;;;4.75;1.00;;;;;;;6.08;100.00;92840.16;2072552;28;20111;-74
2022/12/21 05:11:53;;;;;;;4.60;1.00;;;;;;;6.13;100.00;92837.09;2071304;28;20053;-75
2022/12/21 05:12:54;;;;;;;2.35;1.20;;;;;;;6.07;100.00;92846.63;2064051;28;20060;-72
2022/12/21 05:13:56;;;;;;;4.82;2.20;;;;;;;6.01;100.00;92846.28;2072173;28;20045;-74
2022/12/21 05:14:57;;;;;;;4.75;3.22;;;;;;;5.94;100.00;92849.75;2080503;28;20220;-75
2022/12/21 05:16:02;;;;;;;5.57;2.60;;;;;;;5.85;100.00;92846.78;2072448;28;20072;-74
2022/12/21 05:17:03;;;;;;;2.70;1.40;;;;;;;5.76;100.00;92841.94;2064775;28;20469;-74
2022/12/21 05:18:05;;;;;;;3.47;1.65;;;;;;;5.71;100.00;92847.66;2061135;28;20580;-74
2022/12/21 05:19:07;;;;;;;1.63;1.20;;;;;;;5.74;100.00;92846.84;2072474;28;20021;-73
2022/12/21 05:20:08;;;;;;;1.67;1.10;;;;;;;5.75;100.00;92844.94;2072346;28;20064;-74
2022/12/21 05:21:10;;;;;;;3.35;1.30;;;;;;;5.80;100.00;92840.00;2063986;28;20125;-74
2022/12/21 05:22:11;;;;;;;1.45;1.20;;;;;;;5.75;100.00;92840.44;2072361;28;20076;-73
2022/12/21 05:23:17;;;;;;;2.92;1.58;;;;;;;5.89;100.00;92844.09;2080314;28;20041;-76
2022/12/21 05:24:22;;;;;;;4.35;2.40;;;;;;;5.82;100.00;92848.31;2081465;28;20075;-77
2022/12/21 05:25:28;;;;;;;4.90;1.63;;;;;;;5.91;100.00;92841.81;2072755;28;20030;-73
2022/12/21 05:26:32;;;;;;;3.63;2.00;;;;;;;6.31;100.00;92841.06;2073600;28;20125;-73
2022/12/21 05:27:36;;;;;;;4.97;2.78;;;;;;;6.06;100.00;92845.88;2080535;28;20029;-74
2022/12/21 05:28:44;;;;;;;3.65;1.30;;;;;;;6.02;100.00;92851.22;2080125;28;20053;-74
2022/12/21 05:29:50;;;;;;;2.05;1.20;;;;;;;6.01;100.00;92855.00;2072366;28;20038;-75
2022/12/21 05:30:56;;;;;;;2.10;1.20;;;;;;;6.09;100.00;92846.97;2070203;28;20583;-74
2022/12/21 05:31:57;;;;;;;1.63;1.20;;;;;;;6.02;100.00;92851.22;2075297;28;20096;-74
2022/12/21 05:32:59;;;;;;;3.55;1.40;;;;;;;5.86;100.00;92844.88;2080795;28;20218;-73
2022/12/21 05:34:01;;;;;;;1.92;1.80;;;;;;;5.84;100.00;92847.16;2072596;28;20034;-74
2022/12/21 05:35:05;;;;;;;2.53;1.30;;;;;;;5.78;100.00;92844.94;2072908;28;20105;-74
2022/12/21 05:36:12;;;;;;;2.03;1.38;;;;;;;5.68;100.00;92843.13;2071861;28;20068;-74
2022/12/21 05:37:14;;;;;;;1.98;1.40;;;;;;;5.63;100.00;92845.44;2063260;28;20397;-75
2022/12/21 05:38:20;;;;;;;3.35;1.60;;;;;;;5.50;100.00;92842.50;2072342;28;20053;-73
2022/12/21 05:39:21;;;;;;;2.40;1.27;;;;;;;5.28;100.00;92847.19;2064932;28;20417;-76
2022/12/21 05:40:23;;;;;;;4.45;1.77;;;;;;;5.20;100.00;92843.06;2071552;28;20452;-75
2022/12/21 05:41:25;;;;;;;3.50;1.80;;;;;;;5.03;100.00;92840.13;2071296;28;20132;-74
2022/12/21 05:42:33;;;;;;;3.05;2.38;;;;;;;4.93;100.00;92848.91;2064903;28;20027;-73
2022/12/21 05:43:38;;;;;;;2.70;2.50;;;;;;;4.82;100.00;92840.22;2079045;28;20044;-73
2022/12/21 05:44:47;;;;;;;6.13;3.15;;;;;;;4.81;100.00;92846.69;2067548;28;20624;-74
2022/12/21 05:45:52;;;;;;;1.98;1.83;;;;;;;4.85;100.00;92841.38;2071731;28;20161;-75
2022/12/21 05:46:58;;;;;;;3.33;2.00;;;;;;;4.74;100.00;92849.34;2067874;28;20033;-74
2022/12/21 05:48:16;;;;;;;3.13;2.25;;;;;;;4.67;100.00;92831.63;2075529;28;20547;-75
2022/12/21 05:49:28;;;;;;;4.78;3.78;;;;;;;4.72;100.00;92839.16;2072742;28;20061;-74
2022/12/21 05:50:34;;;;;;;7.75;3.17;;;;;;;4.62;100.00;92837.31;2066541;28;20030;-77
2022/12/21 05:51:36;;;;;;;4.95;2.80;;;;;;;4.55;100.00;92838.06;2072412;28;20409;-76
2022/12/21 05:52:40;;;;;;;2.45;2.25;;;;;;;4.48;100.00;92840.75;2069793;28;20045;-77
2022/12/21 05:53:44;;;;;;;4.57;2.65;;;;;;;4.47;100.00;92836.59;2079905;28;20029;-74
2022/12/21 05:54:45;;;;;;;3.20;2.90;;;;;;;4.51;100.00;92837.34;2080537;28;20033;-74
2022/12/21 05:55:46;;;;;;;3.58;3.28;;;;;;;4.38;100.00;92843.44;2071495;28;20496;-73
2022/12/21 05:56:47;;;;;;;5.03;2.97;;;;;;;4.37;100.00;92834.00;2071542;28;20053;-73
2022/12/21 05:57:48;;;;;;;4.10;2.75;;;;;;;4.34;100.00;92837.38;2071866;28;20037;-73
2022/12/21 05:58:49;;;;;;;3.40;3.10;;;;;;;4.21;100.00;92829.84;2071923;28;20036;-73
2022/12/21 05:59:53;;;;;;;8.85;3.58;;;;;;;4.18;100.00;92837.81;2071816;28;20046;-74
2022/12/21 06:01:07;;;;;;;3.70;3.10;;;;;;;4.18;100.00;92843.88;2072496;28;20511;-75
2022/12/21 06:02:09;;;;;;;3.58;3.28;;;;;;;4.13;100.00;92833.69;2080205;28;20083;-75
2022/12/21 06:03:10;;;;;;;4.65;3.67;;;;;;;4.08;100.00;92838.59;2067821;28;20033;-75
2022/12/21 06:04:15;;;;;;;5.10;3.17;;;;;;;4.10;100.00;92833.69;2071887;28;20030;-74
2022/12/21 06:05:16;;;;;;;3.40;2.88;;;;;;;4.10;100.00;92834.44;2082849;28;20040;-74
2022/12/21 06:06:18;;;;;;;3.97;3.55;;;;;;;4.04;100.00;92839.38;2072328;28;20084;-74
2022/12/21 06:07:19;;;;;;;4.47;4.18;;;;;;;4.03;100.00;92837.84;2072995;28;20042;-74
2022/12/21 06:08:20;;;;;;;4.60;3.78;;;;;;;4.01;100.00;92840.13;2081769;28;20036;-74
2022/12/21 06:09:23;;;;;;;3.63;3.33;;;;;;;3.99;100.00;92844.25;2063752;28;20026;-75
2022/12/21 06:10:24;;;;;;;7.18;3.88;;;;;;;3.93;100.00;92841.25;2072137;28;20061;-73
2022/12/21 06:11:25;;;;;;;5.65;4.47;;;;;;;3.96;100.00;92845.03;2080098;28;20029;-74
2022/12/21 06:12:29;;;;;;;6.05;4.60;;;;;;;3.93;100.00;92841.25;2083249;28;20384;-73
2022/12/21 06:13:33;;;;;;;4.18;3.78;;;;;;;3.90;100.00;92841.25;2079653;28;20111;-74
2022/12/21 06:14:37;;;;;;;6.15;4.00;;;;;;;3.92;100.00;92845.03;2071694;28;20112;-73
2022/12/21 06:15:38;;;;;;;4.50;3.72;;;;;;;3.81;100.00;92840.88;2064513;28;20101;-73
2022/12/21 06:16:39;;;;;;;6.07;3.80;;;;;;;3.87;100.00;92842.03;2071932;28;20471;-74
2022/12/21 06:17:40;;;;;;;6.25;3.83;;;;;;;3.77;100.00;92839.00;2063347;28;20576;-75
2022/12/21 06:18:42;;;;;;;5.55;4.15;;;;;;;3.82;100.00;92847.69;2064985;28;20036;-72
2022/12/21 06:19:43;;;;;;;5.35;4.72;;;;;;;3.77;100.00;92852.22;2088218;28;20021;-74
2022/12/21 06:20:51;;;;;;;5.57;4.10;;;;;;;3.73;100.00;92846.19;2065652;28;20030;-71
2022/12/21 06:21:58;;;;;;;8.98;4.38;;;;;;;3.59;100.00;92846.19;2056693;28;20031;-75
2022/12/21 06:23:00;;;;;;;4.70;4.30;;;;;;;3.61;100.00;92851.88;2070748;28;20044;-74
2022/12/21 06:24:39;;;;;;;;;;;;;;;;;;;;;
2022/12/21 06:29:19;;;;;;;4.43;3.38;;;;;;;3.68;100.00;92837.88;2082191;28;20060;-77
2022/12/21 06:30:24;;;;;;;6.45;3.75;;;;;;;3.61;100.00;92843.19;2068755;28;20563;-74
2022/12/21 06:31:25;;;;;;;9.57;4.30;;;;;;;3.61;100.00;92843.19;2053211;28;20729;-72
2022/12/21 06:32:26;;;;;;;6.28;3.90;;;;;;;3.62;100.00;92842.03;2068243;28;20034;-74
2022/12/21 06:33:29;;;;;;;5.25;4.03;;;;;;;3.66;100.00;92846.19;2069106;28;20034;-72
2022/12/21 06:34:30;;;;;;;5.15;3.85;;;;;;;3.61;100.00;92843.94;2061240;28;20034;-74
2022/12/21 06:35:32;;;;;;;50.60;35.42;;;;;;;3.54;100.00;92842.03;2069127;28;20500;-73
2022/12/21 06:36:36;;;;;;;33.05;22.73;;;;;;;3.51;100.00;92844.66;2069944;28;20071;-73
2022/12/21 06:37:38;;;;;;;19.98;16.88;;;;;;;3.54;100.00;92841.28;2069214;28;20498;-74
2022/12/21 06:38:39;;;;;;;18.55;14.48;;;;;;;3.55;100.00;92845.41;2060632;28;20069;-74
2022/12/21 06:39:41;;;;;;;8.43;7.60;;;;;;;3.56;100.00;92841.66;2059088;28;20089;-75
2022/12/21 06:40:44;;;;;;;16.38;12.10;;;;;;;3.59;100.00;92843.53;2069412;28;20062;-74
2022/12/21 06:41:45;;;;;;;7.78;7.10;;;;;;;3.61;100.00;92851.88;2061833;28;20084;-73
2022/12/21 06:42:46;;;;;;;9.50;6.82;;;;;;;3.56;100.00;92848.81;2064076;28;20422;-72
2022/12/21 06:43:47;;;;;;;8.70;5.05;;;;;;;3.58;100.00;92849.22;2069604;28;20094;-74
2022/12/21 06:44:48;;;;;;;5.88;5.10;;;;;;;3.54;100.00;92838.63;2072048;28;20041;-73
2022/12/21 06:45:59;;;;;;;7.50;5.13;;;;;;;3.43;100.00;92843.19;2085842;28;20057;-74
2022/12/21 06:47:00;;;;;;;8.10;5.03;;;;;;;3.50;100.00;92848.44;2077734;28;20045;-74
2022/12/21 06:48:01;;;;;;;4.95;3.90;;;;;;;3.46;100.00;92853.72;2069505;28;20105;-74
2022/12/21 06:49:03;;;;;;;5.38;4.88;;;;;;;3.42;100.00;92855.59;2073496;28;20034;-74
2022/12/21 06:50:18;;;;;;;19.85;6.35;;;;;;;3.40;100.00;92849.97;2077248;28;20029;-75
2022/12/21 06:51:30;;;;;;;19.92;6.72;;;;;;;3.36;100.00;92843.91;2057384;28;20041;-73
2022/12/21 06:52:32;;;;;;;8.70;6.10;;;;;;;3.39;100.00;92840.53;2062380;28;20073;-72
2022/12/21 06:53:36;;;;;;;23.25;7.75;;;;;;;3.39;100.00;92848.44;2069595;28;20034;-73
2022/12/21 06:54:37;;;;;;;7.97;5.45;;;;;;;3.38;100.00;92841.66;2062178;28;20120;-74
2022/12/21 06:55:38;;;;;;;9.70;5.60;;;;;;;3.38;100.00;92838.25;2070979;28;20061;-71
2022/12/21 06:56:39;;;;;;;7.75;5.70;;;;;;;3.35;100.00;92839.75;2078387;28;21104;-73
2022/12/21 06:57:40;;;;;;;9.20;5.68;;;;;;;3.32;100.00;92840.50;2070408;28;20092;-72
2022/12/21 06:58:42;;;;;;;13.68;5.50;;;;;;;3.33;100.00;92846.53;2073206;28;20437;-73
2022/12/21 06:59:43;;;;;;;7.80;6.70;;;;;;;3.31;100.00;92841.66;2080488;28;20623;-74
2022/12/21 07:00:44;;;;;;;12.00;6.47;;;;;;;3.34;100.00;92845.44;2072617;28;20037;-72
2022/12/21 07:01:45;;;;;;;6.70;6.03;;;;;;;3.32;100.00;92848.44;2071335;28;20673;-74
2022/12/21 07:02:46;;;;;;;7.95;6.28;;;;;;;3.30;100.00;92850.72;2087686;28;20025;-73
2022/12/21 07:03:51;;;;;;;6.78;5.78;;;;;;;3.33;100.00;92849.19;2079438;28;20033;-73
2022/12/21 07:04:53;;;;;;;7.03;5.55;;;;;;;3.26;100.00;92842.03;2072525;28;20045;-74
2022/12/21 07:05:54;;;;;;;11.02;5.97;;;;;;;3.24;100.00;92842.38;2079159;28;20052;-73
2022/12/21 07:06:55;;;;;;;8.50;5.60;;;;;;;3.22;100.00;92847.28;2078760;28;20135;-74
2022/12/21 07:07:56;;;;;;;6.47;5.45;;;;;;;3.27;100.00;92843.53;2084242;28;20544;-73
2022/12/21 07:08:58;;;;;;;9.07;5.55;;;;;;;3.27;100.00;92848.81;2078730;28;20033;-74